createdAt,value
2022-10-08T00:00:54.184Z,100538.44
2022-10-08T00:03:22.047Z,100530.25
2022-10-08T00:05:49.856Z,100533.16
2022-10-08T00:08:17.638Z,100530.44
2022-10-08T00:10:45.505Z,100529.59
2022-10-08T00:13:13.379Z,100519.50
2022-10-08T00:15:41.793Z,100526.03
2022-10-08T00:18:09.772Z,100519.72
2022-10-08T00:20:37.605Z,100523.28
2022-10-08T00:23:05.406Z,100520.75
2022-10-08T00:25:33.200Z,100528.09
2022-10-08T00:28:01.048Z,100518.22
2022-10-08T00:30:28.839Z,100518.22
2022-10-08T00:32:59.828Z,100515.66
2022-10-08T00:35:27.868Z,100508.31
2022-10-08T00:37:55.657Z,100506.63
2022-10-08T00:59:17.207Z,100490.38
2022-10-08T01:01:44.996Z,100492.72
2022-10-08T01:04:12.935Z,100495.28
2022-10-08T01:06:40.722Z,100488.09
2022-10-08T01:09:14.089Z,100482.63
2022-10-08T01:11:44.791Z,100488.09
2022-10-08T01:14:12.539Z,100487.09
2022-10-08T01:16:40.289Z,100491.66
2022-10-08T01:19:08.169Z,100483.47
2022-10-08T01:21:37.251Z,100487.25
2022-10-08T01:24:05.223Z,100492.72
2022-10-08T01:26:32.907Z,100487.91
2022-10-08T01:29:03.057Z,100486.22
2022-10-08T01:31:31.140Z,100481.63
2022-10-08T01:33:59.386Z,100485.19
2022-10-08T01:36:27.044Z,100478.91
2022-10-08T01:38:54.742Z,100481.81
2022-10-08T01:41:22.416Z,100478.91
2022-10-08T01:43:50.091Z,100483.47
2022-10-08T01:46:18.053Z,100484.53
2022-10-08T01:48:45.822Z,100469.84
2022-10-08T01:51:13.928Z,100465.44
2022-10-08T01:53:41.780Z,100472.78
2022-10-08T01:56:09.464Z,100473.78
2022-10-08T01:58:37.269Z,100475.50
2022-10-08T02:01:05.014Z,100471.06
2022-10-08T02:03:32.773Z,100472.78
2022-10-08T02:06:00.627Z,100472.13
2022-10-08T02:08:28.328Z,100466.84
2022-10-08T02:10:56.024Z,100469.56
2022-10-08T02:13:23.729Z,100470.44
2022-10-08T02:15:51.589Z,100461.38
2022-10-08T02:18:19.397Z,100463.25
2022-10-08T02:20:47.115Z,100458.03
2022-10-08T02:23:15.093Z,100456.97
2022-10-08T02:25:42.775Z,100466.19
2022-10-08T02:28:10.682Z,100458.84
2022-10-08T02:30:38.469Z,100465.16
2022-10-08T02:33:06.204Z,100458.84
2022-10-08T02:35:33.872Z,100462.44
2022-10-08T02:38:01.533Z,100463.94
2022-10-08T02:40:29.204Z,100463.09
2022-10-08T02:42:57.165Z,100467.72
2022-10-08T02:45:24.846Z,100471.28
2022-10-08T02:47:52.746Z,100472.28
2022-10-08T02:50:20.460Z,100475.03
2022-10-08T02:52:48.442Z,100472.13
2022-10-08T02:55:19.356Z,100466.84
2022-10-08T02:57:47.042Z,100468.72
2022-10-08T03:00:14.728Z,100479.47
2022-10-08T03:02:42.487Z,100478.41
2022-10-08T03:05:10.306Z,100476.72
2022-10-08T03:07:38.050Z,100475.03
2022-10-08T03:10:06.624Z,100475.22
2022-10-08T03:12:34.301Z,100478.78
2022-10-08T03:15:02.392Z,100482.56
2022-10-08T03:17:30.700Z,100486.13
2022-10-08T03:19:58.425Z,100479.84
2022-10-08T03:22:26.105Z,100483.19
2022-10-08T03:24:56.726Z,100481.53
2022-10-08T03:27:24.656Z,100489.72
2022-10-08T03:29:57.055Z,100488.03
2022-10-08T03:32:24.761Z,100494.31
2022-10-08T03:34:52.562Z,100497.91
2022-10-08T03:37:20.253Z,100490.75
2022-10-08T03:39:47.971Z,100484.25
2022-10-08T03:42:15.669Z,100482.56
2022-10-08T03:44:43.363Z,100486.31
2022-10-08T03:47:11.069Z,100479.84
2022-10-08T03:49:38.852Z,100480.84
2022-10-08T03:52:06.638Z,100475.41
2022-10-08T03:54:34.291Z,100477.13
2022-10-08T03:57:02.006Z,100482.56
2022-10-08T03:59:29.733Z,100475.41
2022-10-08T04:01:57.391Z,100480.84
2022-10-08T04:04:25.943Z,100480.84
2022-10-08T04:06:53.828Z,100484.63
2022-10-08T04:09:21.513Z,100483.78
2022-10-08T04:11:49.215Z,100488.38
2022-10-08T04:14:16.899Z,100479.56
2022-10-08T04:16:44.801Z,100489.25
2022-10-08T04:19:12.617Z,100485.66
2022-10-08T04:21:40.335Z,100479.34
2022-10-08T04:24:08.018Z,100477.47
2022-10-08T04:26:35.735Z,100479.34
2022-10-08T04:29:03.576Z,100482.09
2022-10-08T04:31:33.510Z,100486.69
2022-10-08T04:34:01.451Z,100499.28
2022-10-08T04:36:29.142Z,100493.84
2022-10-08T04:38:56.920Z,100484.63
2022-10-08T04:41:24.807Z,100482.09
2022-10-08T04:43:52.506Z,100489.44
2022-10-08T04:46:20.246Z,100486.09
2022-10-08T04:48:48.012Z,100491.38
2022-10-08T04:51:15.658Z,100490.84
2022-10-08T04:53:43.328Z,100492.09
2022-10-08T04:56:11.057Z,100503.44
2022-10-08T04:58:38.742Z,100495.75
2022-10-08T05:01:06.466Z,100499.22
2022-10-08T05:03:34.152Z,100506.91
2022-10-08T05:06:01.864Z,100512.97
2022-10-08T05:08:29.559Z,100512.66
2022-10-08T05:10:57.333Z,100500.78
2022-10-08T05:13:25.040Z,100514.88
2022-10-08T05:15:52.815Z,100515.63
2022-10-08T05:18:20.548Z,100516.47
2022-10-08T05:20:48.233Z,100523.53
2022-10-08T05:23:15.916Z,100518.81
2022-10-08T05:25:43.881Z,100509.72
2022-10-08T05:28:11.650Z,100515.53
2022-10-08T05:30:39.397Z,100523.22
2022-10-08T05:33:07.103Z,100536.09
2022-10-08T05:35:34.919Z,100534.00
2022-10-08T05:38:02.649Z,100525.28
2022-10-08T05:40:30.841Z,100539.88
2022-10-08T05:42:58.529Z,100537.34
2022-10-08T05:45:26.250Z,100536.84
2022-10-08T05:47:54.088Z,100539.22
2022-10-08T05:50:22.171Z,100545.06
2022-10-08T05:52:50.175Z,100558.56
2022-10-08T05:55:18.117Z,100557.56
2022-10-08T05:57:45.803Z,100555.50
2022-10-08T06:00:13.507Z,100556.81
2022-10-08T06:02:41.288Z,100556.81
2022-10-08T06:05:09.180Z,100547.50
2022-10-08T06:07:36.922Z,100546.47
2022-10-08T06:10:04.612Z,100558.44
2022-10-08T06:12:32.307Z,100559.84
2022-10-08T06:15:00.003Z,100562.56
2022-10-08T06:17:27.704Z,100557.69
2022-10-08T06:19:55.417Z,100562.69
2022-10-08T06:22:23.147Z,100575.94
2022-10-08T06:24:50.817Z,100573.19
2022-10-08T06:27:18.522Z,100577.69
2022-10-08T06:29:46.242Z,100576.44
2022-10-08T06:32:13.926Z,100577.50
2022-10-08T06:34:42.242Z,100577.91
2022-10-08T06:37:10.410Z,100575.97
2022-10-08T06:39:38.171Z,100579.53
2022-10-08T06:42:05.893Z,100577.63
2022-10-08T06:44:33.594Z,100579.06
2022-10-08T06:47:01.349Z,100579.03
2022-10-08T06:49:29.058Z,100586.81
2022-10-08T06:51:56.796Z,100592.44
2022-10-08T06:54:26.257Z,100595.34
2022-10-08T06:56:55.777Z,100588.97
2022-10-08T06:59:23.469Z,100591.44
2022-10-08T07:01:51.145Z,100596.03
2022-10-08T07:04:18.882Z,100607.13
2022-10-08T07:06:46.589Z,100599.72
2022-10-08T07:09:14.284Z,100601.16
2022-10-08T07:11:41.994Z,100601.97
2022-10-08T07:14:09.685Z,100604.44
2022-10-08T07:16:37.436Z,100611.75
2022-10-08T07:19:05.175Z,100606.00
2022-10-08T07:21:32.852Z,100608.28
2022-10-08T07:24:00.767Z,100608.84
2022-10-08T07:26:28.448Z,100617.47
2022-10-08T07:28:56.297Z,100613.22
2022-10-08T07:31:24.182Z,100610.03
2022-10-08T07:33:51.950Z,100609.78
2022-10-08T07:36:21.256Z,100607.41
2022-10-08T07:38:49.113Z,100608.47
2022-10-08T07:41:16.835Z,100612.84
2022-10-08T07:43:44.546Z,100606.25
2022-10-08T07:46:12.458Z,100621.34
2022-10-08T07:48:40.271Z,100612.22
2022-10-08T07:51:07.951Z,100613.66
2022-10-08T07:53:35.649Z,100616.56
2022-10-08T07:56:03.542Z,100615.06
2022-10-08T07:58:31.326Z,100613.56
2022-10-08T08:00:59.088Z,100617.53
2022-10-08T08:03:26.812Z,100615.84
2022-10-08T08:05:54.539Z,100612.47
2022-10-08T08:08:23.496Z,100615.59
2022-10-08T08:10:51.467Z,100617.47
2022-10-08T08:13:19.187Z,100627.56
2022-10-08T08:15:46.869Z,100623.31
2022-10-08T08:18:14.836Z,100616.16
2022-10-08T08:20:42.938Z,100619.28
2022-10-08T08:23:10.622Z,100630.19
2022-10-08T08:25:38.290Z,100625.97
2022-10-08T08:28:06.126Z,100631.44
2022-10-08T08:30:33.859Z,100627.00
2022-10-08T08:33:01.645Z,100631.78
2022-10-08T08:35:29.396Z,100622.75
2022-10-08T08:37:57.099Z,100640.81
2022-10-08T08:40:24.918Z,100636.41
2022-10-08T08:42:52.603Z,100642.03
2022-10-08T08:45:44.683Z,100640.16
2022-10-08T08:48:08.039Z,100637.81
2022-10-08T08:50:35.791Z,100641.38
2022-10-08T08:53:03.611Z,100648.56
2022-10-08T08:55:31.428Z,100647.69
2022-10-08T08:57:59.156Z,100643.94
2022-10-08T09:00:27.327Z,100649.56
2022-10-08T09:02:55.107Z,100649.78
2022-10-08T09:05:22.985Z,100654.38
2022-10-08T09:07:51.321Z,100656.09
2022-10-08T09:10:18.963Z,100652.13
2022-10-08T09:12:47.039Z,100656.94
2022-10-08T09:15:14.993Z,100655.88
2022-10-08T09:17:42.725Z,100661.81
2022-10-08T09:20:10.609Z,100662.66
2022-10-08T09:22:38.336Z,100666.44
2022-10-08T09:25:06.026Z,100662.84
2022-10-08T09:27:33.782Z,100661.16
2022-10-08T09:30:01.416Z,100661.56
2022-10-08T09:32:29.082Z,100656.25
2022-10-08T09:34:56.773Z,100660.88
2022-10-08T09:37:24.432Z,100664.47
2022-10-08T09:39:52.147Z,100667.19
2022-10-08T09:42:19.876Z,100669.06
2022-10-08T09:44:47.570Z,100681.88
2022-10-08T09:47:15.229Z,100685.47
2022-10-08T09:49:42.976Z,100689.03
2022-10-08T09:52:13.535Z,100676.22
2022-10-08T09:54:46.470Z,100682.56
2022-10-08T09:57:14.161Z,100685.09
2022-10-08T09:59:41.873Z,100685.28
2022-10-08T10:02:10.197Z,100676.22
2022-10-08T10:04:37.983Z,100678.13
2022-10-08T10:07:05.681Z,100682.91
2022-10-08T10:09:33.385Z,100691.09
2022-10-08T10:12:01.186Z,100685.47
2022-10-08T10:14:28.915Z,100691.59
2022-10-08T10:16:56.605Z,100692.59
2022-10-08T10:19:24.241Z,100681.69
2022-10-08T10:21:52.678Z,100693.47
2022-10-08T10:24:20.382Z,100705.44
2022-10-08T10:26:48.080Z,100698.06
2022-10-08T10:29:16.475Z,100699.97
2022-10-08T10:31:44.472Z,100697.44
2022-10-08T10:34:12.131Z,100699.28
2022-10-08T10:36:39.801Z,100694.72
2022-10-08T10:39:07.520Z,100694.03
2022-10-08T10:41:35.230Z,100686.91
2022-10-08T10:44:02.942Z,100691.47
2022-10-08T10:46:30.751Z,100688.75
2022-10-08T10:48:58.536Z,100692.53
2022-10-08T10:51:28.356Z,100699.69
2022-10-08T10:53:58.181Z,100692.53
2022-10-08T10:56:25.845Z,100702.41
2022-10-08T10:58:53.505Z,100704.31
2022-10-08T11:01:21.695Z,100704.31
2022-10-08T11:03:49.401Z,100701.78
2022-10-08T11:06:17.172Z,100704.69
2022-10-08T11:08:44.848Z,100699.59
2022-10-08T11:11:12.513Z,100706.75
2022-10-08T11:13:40.235Z,100705.06
2022-10-08T11:16:07.993Z,100701.28
2022-10-08T11:18:35.801Z,100702.13
2022-10-08T11:21:03.463Z,100697.88
2022-10-08T11:23:31.176Z,100702.34
2022-10-08T11:28:46.663Z,100709.84
2022-10-08T11:31:14.451Z,100707.31
2022-10-08T11:33:42.152Z,100710.25
2022-10-08T11:36:09.849Z,100705.78
2022-10-08T11:38:37.616Z,100709.56
2022-10-08T11:41:05.320Z,100716.72
2022-10-08T11:43:33.083Z,100720.50
2022-10-08T11:46:00.825Z,100715.03
2022-10-08T11:48:28.537Z,100720.50
2022-10-08T11:50:56.252Z,100720.50
2022-10-08T11:53:24.032Z,100725.94
2022-10-08T11:55:51.786Z,100722.19
2022-10-08T11:58:21.175Z,100720.13
2022-10-08T12:00:48.867Z,100731.03
2022-10-08T12:03:16.732Z,100732.53
2022-10-08T12:05:49.299Z,100739.72
2022-10-08T12:08:18.018Z,100737.84
2022-10-08T12:10:45.742Z,100729.63
2022-10-08T12:13:17.576Z,100733.22
2022-10-08T12:15:45.671Z,100730.66
2022-10-08T12:18:13.705Z,100726.25
2022-10-08T12:20:42.448Z,100727.28
2022-10-08T12:23:10.112Z,100725.41
2022-10-08T12:25:37.842Z,100726.25
2022-10-08T12:28:05.633Z,100723.03
2022-10-08T12:30:33.475Z,100726.63
2022-10-08T12:33:01.163Z,100732.09
2022-10-08T12:35:28.970Z,100725.56
2022-10-08T12:37:56.611Z,100727.63
2022-10-08T12:40:24.392Z,100732.25
2022-10-08T12:42:52.074Z,100738.56
2022-10-08T12:45:19.755Z,100732.56
2022-10-08T12:47:47.676Z,100736.88
2022-10-08T12:50:15.581Z,100735.63
2022-10-08T12:52:43.274Z,100740.06
2022-10-08T12:55:10.979Z,100740.84
2022-10-08T12:57:38.790Z,100733.97
2022-10-08T13:00:06.918Z,100733.31
2022-10-08T13:02:34.575Z,100740.03
2022-10-08T13:05:02.279Z,100755.38
2022-10-08T13:07:30.101Z,100747.31
2022-10-08T13:09:57.792Z,100754.78
2022-10-08T13:12:25.495Z,100749.38
2022-10-08T13:14:53.291Z,100749.81
2022-10-08T13:17:21.320Z,100746.66
2022-10-08T13:19:49.080Z,100750.16
2022-10-08T13:22:16.778Z,100756.50
2022-10-08T13:24:44.463Z,100752.72
2022-10-08T13:27:12.248Z,100762.41
2022-10-08T13:29:40.068Z,100758.94
2022-10-08T13:32:07.842Z,100761.00
2022-10-08T13:34:35.806Z,100759.09
2022-10-08T13:37:03.665Z,100764.28
2022-10-08T13:39:31.517Z,100758.75
2022-10-08T13:41:59.513Z,100761.44
2022-10-08T13:44:27.380Z,100759.69
2022-10-08T13:46:57.962Z,100762.16
2022-10-08T13:49:28.253Z,100757.66
2022-10-08T13:51:56.180Z,100766.84
2022-10-08T13:54:23.997Z,100765.34
2022-10-08T13:56:51.823Z,100765.91
2022-10-08T13:59:19.722Z,100760.38
2022-10-08T14:01:47.581Z,100768.22
2022-10-08T14:04:15.597Z,100763.00
2022-10-08T14:06:43.513Z,100765.47
2022-10-08T14:09:11.347Z,100768.59
2022-10-08T14:11:41.395Z,100761.16
2022-10-08T14:14:09.201Z,100760.66
2022-10-08T14:16:37.166Z,100757.88
2022-10-08T14:19:08.660Z,100760.53
2022-10-08T14:21:39.262Z,100770.53
2022-10-08T14:24:07.154Z,100776.78
2022-10-08T14:26:34.978Z,100775.03
2022-10-08T14:29:02.795Z,100782.78
2022-10-08T14:31:30.656Z,100780.75
2022-10-08T14:33:58.554Z,100783.88
2022-10-08T14:36:26.475Z,100780.22
2022-10-08T14:38:54.449Z,100787.97
2022-10-08T14:41:22.342Z,100794.00
2022-10-08T14:43:50.247Z,100777.97
2022-10-08T14:46:18.584Z,100785.91
2022-10-08T14:48:46.582Z,100775.34
2022-10-08T14:51:14.507Z,100784.97
2022-10-08T14:53:42.535Z,100777.16
2022-10-08T14:56:12.751Z,100776.88
2022-10-08T14:58:40.783Z,100777.25
2022-10-08T15:01:08.591Z,100776.78
2022-10-08T15:03:36.436Z,100777.34
2022-10-08T15:06:04.232Z,100785.16
2022-10-08T15:08:32.110Z,100786.00
2022-10-08T15:11:00.218Z,100789.47
2022-10-08T15:13:27.998Z,100787.47
2022-10-08T15:15:55.893Z,100786.66
2022-10-08T15:18:23.764Z,100794.41
2022-10-08T15:20:51.572Z,100800.47
2022-10-08T15:23:19.517Z,100797.03
2022-10-08T15:25:47.364Z,100788.50
2022-10-08T15:28:15.520Z,100798.38
2022-10-08T15:30:44.500Z,100805.75
2022-10-08T15:33:12.471Z,100796.25
2022-10-08T15:35:40.337Z,100807.31
2022-10-08T15:38:08.400Z,100795.47
2022-10-08T15:40:36.377Z,100809.28
2022-10-08T15:43:04.255Z,100805.63
2022-10-08T15:45:38.100Z,100807.84
2022-10-08T15:48:06.228Z,100819.94
2022-10-08T15:50:34.099Z,100822.78
2022-10-08T15:53:02.122Z,100827.53
2022-10-08T15:55:30.019Z,100823.69
2022-10-08T15:57:58.272Z,100831.81
2022-10-08T16:00:26.142Z,100836.97
2022-10-08T16:02:54.161Z,100842.38
2022-10-08T16:05:22.044Z,100844.81
2022-10-08T16:07:49.909Z,100840.09
2022-10-08T16:10:17.916Z,100848.22
2022-10-08T16:12:46.022Z,100851.78
2022-10-08T16:15:14.116Z,100850.94
2022-10-08T16:17:41.983Z,100851.34
2022-10-08T16:20:10.032Z,100857.84
2022-10-08T16:22:37.978Z,100860.94
2022-10-08T16:25:05.930Z,100872.25
2022-10-08T16:27:33.777Z,100881.00
2022-10-08T16:30:01.847Z,100884.09
2022-10-08T16:32:29.774Z,100884.47
2022-10-08T16:34:57.691Z,100900.22
2022-10-08T16:37:25.998Z,100901.41
2022-10-08T16:39:54.012Z,100911.03
2022-10-08T16:42:21.925Z,100924.03
2022-10-08T16:44:49.880Z,100931.56
2022-10-08T16:47:17.817Z,100939.28
2022-10-08T16:49:46.738Z,100944.88
2022-10-08T16:52:14.770Z,100945.25
2022-10-08T16:54:42.683Z,100956.81
2022-10-08T16:57:10.631Z,100962.22
2022-10-08T16:59:38.971Z,100964.25
2022-10-08T17:02:06.910Z,100957.16
2022-10-08T17:04:39.250Z,100957.31
2022-10-08T17:07:07.497Z,100969.31
2022-10-08T17:09:35.540Z,100960.63
2022-10-08T17:12:03.578Z,100964.03
2022-10-08T17:14:33.262Z,100969.53
2022-10-08T17:17:01.174Z,100982.00
2022-10-08T17:19:29.201Z,100987.41
2022-10-08T17:21:57.032Z,100993.28
2022-10-08T17:24:24.927Z,100992.59
2022-10-08T17:26:52.755Z,101004.94
2022-10-08T17:29:20.768Z,101006.56
2022-10-08T17:31:48.759Z,101009.41
2022-10-08T17:34:16.677Z,101023.88
2022-10-08T17:36:44.652Z,101024.44
2022-10-08T17:39:12.731Z,101025.53
2022-10-08T17:41:40.654Z,101031.97
2022-10-08T17:44:08.530Z,101034.56
2022-10-08T17:46:36.439Z,101036.31
2022-10-08T17:49:04.930Z,101039.75
2022-10-08T17:51:32.820Z,101038.56
2022-10-08T17:54:00.798Z,101044.34
2022-10-08T17:56:28.738Z,101035.78
2022-10-08T17:58:56.663Z,101033.31
2022-10-08T18:01:24.701Z,101041.81
2022-10-08T18:03:52.610Z,101049.06
2022-10-08T18:06:20.532Z,101049.16
2022-10-08T18:08:48.455Z,101056.63
2022-10-08T18:11:16.804Z,101064.72
2022-10-08T18:13:44.728Z,101070.28
2022-10-08T18:16:12.744Z,101066.44
2022-10-08T18:18:40.874Z,101066.50
2022-10-08T18:21:08.832Z,101066.22
2022-10-08T18:23:36.770Z,101075.16
2022-10-08T18:26:04.818Z,101082.00
2022-10-08T18:28:32.805Z,101096.22
2022-10-08T18:31:00.759Z,101089.81
2022-10-08T18:33:28.730Z,101100.25
2022-10-08T18:35:56.659Z,101101.84
2022-10-08T18:38:24.566Z,101106.84
2022-10-08T18:40:52.846Z,101117.09
2022-10-08T18:43:20.748Z,101125.66
2022-10-08T18:45:48.629Z,101125.16
2022-10-08T18:48:16.529Z,101130.94
2022-10-08T18:50:44.418Z,101135.69
2022-10-08T18:53:12.416Z,101131.75
2022-10-08T18:55:40.322Z,101139.28
2022-10-08T18:58:08.165Z,101146.63
2022-10-08T19:00:36.113Z,101138.75
2022-10-08T19:03:04.974Z,101131.78
2022-10-08T19:05:34.127Z,101143.06
2022-10-08T19:08:02.092Z,101138.19
2022-10-08T19:10:30.078Z,101142.47
2022-10-08T19:12:57.951Z,101139.41
2022-10-08T19:15:25.859Z,101143.34
2022-10-08T19:17:53.755Z,101149.19
2022-10-08T19:20:21.637Z,101155.03
2022-10-08T19:22:49.831Z,101156.22
2022-10-08T19:25:17.950Z,101162.06
2022-10-08T19:27:45.960Z,101163.25
2022-10-08T19:30:15.889Z,101162.78
2022-10-08T19:32:43.793Z,101162.94
2022-10-08T19:35:11.630Z,101176.13
2022-10-08T19:37:39.471Z,101177.28
2022-10-08T19:40:07.389Z,101183.09
2022-10-08T19:42:35.276Z,101192.31
2022-10-08T19:45:03.416Z,101184.28
2022-10-08T19:47:31.340Z,101186.38
2022-10-08T19:49:59.510Z,101188.41
2022-10-08T19:52:27.627Z,101193.19
2022-10-08T19:54:55.540Z,101202.59
2022-10-08T19:57:23.422Z,101205.53
2022-10-08T19:59:51.361Z,101202.13
2022-10-08T20:02:19.246Z,101209.63
2022-10-08T20:04:47.936Z,101212.53
2022-10-08T20:07:15.830Z,101220.06
2022-10-08T20:09:43.761Z,101224.00
2022-10-08T20:12:11.810Z,101225.00
2022-10-08T20:14:39.776Z,101228.06
2022-10-08T20:17:08.064Z,101231.84
2022-10-08T20:19:35.913Z,101242.78
2022-10-08T20:22:05.731Z,101241.25
2022-10-08T20:24:36.377Z,101240.38
2022-10-08T20:27:04.315Z,101242.44
2022-10-08T20:29:32.314Z,101239.03
2022-10-08T20:32:00.943Z,101250.97
2022-10-08T20:34:28.889Z,101252.00
2022-10-08T20:36:58.148Z,101258.50
2022-10-08T20:39:26.184Z,101265.84
2022-10-08T20:41:53.978Z,101266.84
2022-10-08T20:44:21.913Z,101262.41
2022-10-08T20:46:50.194Z,101264.47
2022-10-08T20:49:18.140Z,101263.63
2022-10-08T20:51:45.997Z,101264.81
2022-10-08T20:54:13.896Z,101274.88
2022-10-08T20:56:41.834Z,101272.31
2022-10-08T20:59:09.652Z,101271.47
2022-10-08T21:01:37.797Z,101268.88
2022-10-08T21:04:05.691Z,101274.34
2022-10-08T21:06:36.714Z,101272.81
2022-10-08T21:09:04.560Z,101279.31
2022-10-08T21:11:32.420Z,101278.47
2022-10-08T21:14:01.786Z,101290.38
2022-10-08T21:16:29.816Z,101297.56
2022-10-08T21:18:57.747Z,101288.69
2022-10-08T21:21:25.677Z,101296.19
2022-10-08T21:23:53.627Z,101291.78
2022-10-08T21:26:21.639Z,101310.88
2022-10-08T21:28:49.619Z,101297.38
2022-10-08T21:31:17.666Z,101298.41
2022-10-08T21:33:45.576Z,101298.41
2022-10-08T21:36:13.685Z,101299.41
2022-10-08T21:38:41.566Z,101300.47
2022-10-08T21:41:17.339Z,101307.81
2022-10-08T21:43:45.280Z,101306.94
2022-10-08T21:46:13.497Z,101306.25
2022-10-08T21:48:41.642Z,101310.88
2022-10-08T21:51:09.444Z,101304.53
2022-10-08T21:53:37.553Z,101310.88
2022-10-08T21:56:10.295Z,101313.75
2022-10-08T21:58:38.164Z,101310.19
2022-10-08T22:01:06.203Z,101314.78
2022-10-08T22:03:34.015Z,101326.72
2022-10-08T22:06:01.864Z,101314.94
2022-10-08T22:08:29.691Z,101327.75
2022-10-08T22:10:57.540Z,101317.84
2022-10-08T22:13:25.685Z,101323.28
2022-10-08T22:15:53.619Z,101330.63
2022-10-08T22:18:21.707Z,101320.75
2022-10-08T22:20:49.505Z,101318.03
2022-10-08T22:23:17.444Z,101329.91
2022-10-08T22:25:45.499Z,101326.34
2022-10-08T22:28:13.358Z,101329.25
2022-10-08T22:30:41.228Z,101327.53
2022-10-08T22:33:09.089Z,101333.81
2022-10-08T22:35:36.912Z,101337.59
2022-10-08T22:38:04.748Z,101333.16
2022-10-08T22:40:32.643Z,101334.84
2022-10-08T22:43:00.470Z,101335.91
2022-10-08T22:45:28.467Z,101330.44
2022-10-08T22:47:56.352Z,101330.44
2022-10-08T22:50:24.244Z,101336.06
2022-10-08T22:52:52.161Z,101336.91
2022-10-08T22:55:20.943Z,101335.19
2022-10-08T22:57:48.824Z,101329.75
2022-10-08T23:00:16.631Z,101334.34
2022-10-08T23:02:44.399Z,101338.09
2022-10-08T23:05:12.418Z,101335.34
2022-10-08T23:07:40.180Z,101338.28
2022-10-08T23:10:08.319Z,101342.00
2022-10-08T23:12:36.071Z,101334.00
2022-10-08T23:15:03.866Z,101346.44
2022-10-08T23:17:31.783Z,101348.31
2022-10-08T23:19:59.615Z,101342.84
2022-10-08T23:22:28.523Z,101340.31
2022-10-08T23:24:56.379Z,101346.75
2022-10-08T23:27:24.293Z,101349.50
2022-10-08T23:29:52.175Z,101345.06
2022-10-08T23:32:20.057Z,101355.97
2022-10-08T23:34:47.857Z,101349.69
2022-10-08T23:37:15.650Z,101357.00
2022-10-08T23:39:43.537Z,101358.00
2022-10-08T23:42:11.347Z,101355.28
2022-10-08T23:44:39.161Z,101358.00
2022-10-08T23:47:07.053Z,101359.03
2022-10-08T23:49:34.838Z,101357.16
2022-10-08T23:52:02.707Z,101356.31
2022-10-08T23:54:30.525Z,101353.94
2022-10-08T23:56:58.333Z,101362.81
2022-10-08T23:59:26.172Z,101364.66
